Time;durP1;ratioP1;P1;durP2;ratioP2;P2;SDS_P1;SDS_P2;PMS_P1;PMS_P2;Temp;Humidity;BMP_temperature;BMP_pressure;BME280_temperature;BME280_humidity;BME280_pressure;Samples;Min_cycle;Max_cycle;Signal;HPM_P1;HPM_P2
2021/11/27 00:01:40;;;;;;;1.30;1.20;;;6.30;99.90;;;;;;5082982;28;20537;-36
2021/11/27 00:04:07;;;;;;;1.67;1.50;;;6.00;99.90;;;;;;5063609;28;20839;-36
2021/11/27 00:06:33;;;;;;;1.13;1.03;;;6.00;99.90;;;;;;5077640;28;20773;-36
2021/11/27 00:08:59;;;;;;;1.33;1.23;;;6.10;99.90;;;;;;5089912;28;20422;-37
2021/11/27 00:11:25;;;;;;;1.47;1.37;;;5.90;99.90;;;;;;5082201;28;20423;-37
2021/11/27 00:13:51;;;;;;;2.03;1.70;;;6.00;99.90;;;;;;5089399;28;20450;-36
2021/11/27 00:16:17;;;;;;;1.23;1.13;;;5.90;99.90;;;;;;5090693;28;20433;-36
2021/11/27 00:18:44;;;;;;;1.80;1.50;;;6.20;99.90;;;;;;5066801;28;20487;-36
2021/11/27 00:21:12;;;;;;;1.40;1.30;;;6.10;99.90;;;;;;5071544;28;20782;-36
2021/11/27 00:23:40;;;;;;;1.20;1.10;;;5.90;99.90;;;;;;5089543;28;20804;-36
2021/11/27 00:26:10;;;;;;;1.43;1.20;;;5.80;99.90;;;;;;5085434;28;20443;-36
2021/11/27 00:28:36;;;;;;;1.77;1.47;;;5.70;99.90;;;;;;5089260;28;21115;-36
2021/11/27 00:31:06;;;;;;;1.23;1.13;;;5.60;99.90;;;;;;5090579;28;20471;-36
2021/11/27 00:33:32;;;;;;;1.17;1.07;;;5.50;99.90;;;;;;5068711;28;20522;-36
2021/11/27 00:35:57;;;;;;;1.30;1.20;;;5.60;99.90;;;;;;5072488;28;20506;-36
2021/11/27 00:38:23;;;;;;;1.50;1.40;;;5.50;99.90;;;;;;5078815;28;20216;-36
2021/11/27 00:40:50;;;;;;;1.40;1.30;;;5.70;99.90;;;;;;5087410;28;20192;-36
2021/11/27 00:43:16;;;;;;;1.47;1.37;;;5.40;99.90;;;;;;5089308;28;20813;-36
2021/11/27 00:45:44;;;;;;;1.40;1.30;;;5.50;99.90;;;;;;5076125;28;20442;-36
2021/11/27 00:48:12;;;;;;;3.50;1.27;;;5.50;99.90;;;;;;5075156;28;20535;-36
2021/11/27 00:50:41;;;;;;;1.20;1.10;;;5.60;99.90;;;;;;5066606;28;20427;-36
2021/11/27 00:53:07;;;;;;;1.53;1.43;;;5.50;99.90;;;;;;5079469;28;20429;-36
2021/11/27 00:55:35;;;;;;;1.93;1.30;;;5.50;99.90;;;;;;5089935;28;20513;-36
2021/11/27 00:58:02;;;;;;;1.47;1.37;;;5.30;99.90;;;;;;5078847;28;20231;-37
2021/11/27 01:00:31;;;;;;;1.97;1.40;;;5.40;99.90;;;;;;5089476;28;20872;-37
2021/11/27 01:02:59;;;;;;;1.50;1.40;;;5.60;99.90;;;;;;5076436;28;20436;-37
2021/11/27 01:05:25;;;;;;;1.40;1.30;;;5.70;99.90;;;;;;5074098;28;20427;-36
2021/11/27 01:07:51;;;;;;;1.30;1.20;;;5.40;99.90;;;;;;5082831;28;20825;-36
2021/11/27 01:10:24;;;;;;;1.30;1.20;;;5.70;99.90;;;;;;5089604;28;20427;-36
2021/11/27 01:12:51;;;;;;;1.60;1.40;;;5.40;99.90;;;;;;5081321;28;20856;-36
2021/11/27 01:15:19;;;;;;;2.23;1.57;;;5.80;99.90;;;;;;5089700;28;20769;-36
2021/11/27 01:17:45;;;;;;;1.30;1.20;;;5.70;99.90;;;;;;5080775;28;20489;-37
2021/11/27 01:20:13;;;;;;;1.50;1.30;;;5.60;99.90;;;;;;5066650;28;20890;-37
2021/11/27 01:22:40;;;;;;;1.53;1.43;;;5.80;99.90;;;;;;5070022;28;20427;-36
2021/11/27 01:25:07;;;;;;;1.60;1.50;;;5.70;99.90;;;;;;5086756;28;20516;-36
2021/11/27 01:27:32;;;;;;;1.37;1.27;;;5.80;99.90;;;;;;5085339;28;20426;-37
2021/11/27 01:29:58;;;;;;;1.30;1.20;;;5.60;99.90;;;;;;5089586;28;20429;-36
2021/11/27 01:32:24;;;;;;;1.20;1.10;;;5.60;99.90;;;;;;5086923;28;20186;-36
2021/11/27 01:34:49;;;;;;;1.10;1.10;;;5.60;99.90;;;;;;5063493;28;20195;-37
2021/11/27 01:37:15;;;;;;;1.17;1.03;;;5.70;99.90;;;;;;5073679;28;20209;-36
2021/11/27 01:39:42;;;;;;;1.13;1.10;;;5.50;99.90;;;;;;5085497;28;20176;-37
2021/11/27 01:42:11;;;;;;;1.73;1.10;;;5.30;99.90;;;;;;5088812;28;20410;-37
2021/11/27 01:44:37;;;;;;;1.00;0.97;;;5.50;99.90;;;;;;5082684;28;20423;-36
2021/11/27 01:47:05;;;;;;;1.33;1.23;;;5.30;99.90;;;;;;5081651;28;20426;-36
2021/11/27 01:49:31;;;;;;;1.53;1.17;;;5.20;99.90;;;;;;5062938;28;20235;-36
2021/11/27 01:51:57;;;;;;;1.20;1.10;;;5.20;99.90;;;;;;5072874;28;20431;-37
2021/11/27 01:54:23;;;;;;;1.10;1.00;;;5.30;99.90;;;;;;5088113;28;20410;-36
2021/11/27 01:56:53;;;;;;;1.60;1.20;;;5.30;99.90;;;;;;5081772;28;20439;-36
2021/11/27 01:59:19;;;;;;;1.60;1.50;;;5.20;99.90;;;;;;5088852;28;20426;-36
2021/11/27 02:01:46;;;;;;;1.07;0.97;;;5.40;99.90;;;;;;5089072;28;21099;-36
2021/11/27 02:04:13;;;;;;;0.80;0.77;;;5.00;99.90;;;;;;5068478;28;20504;-36
2021/11/27 02:06:41;;;;;;;0.90;0.90;;;5.00;99.90;;;;;;5076006;28;20415;-36
2021/11/27 02:09:13;;;;;;;1.23;1.10;;;4.90;99.90;;;;;;5076569;28;20985;-36
2021/11/27 02:11:39;;;;;;;1.67;1.00;;;5.20;99.90;;;;;;5085522;28;20468;-36
2021/11/27 02:14:07;;;;;;;1.20;1.10;;;5.00;99.90;;;;;;5088378;28;20406;-36
2021/11/27 02:16:33;;;;;;;0.87;0.87;;;4.90;99.90;;;;;;5088936;28;20444;-36
2021/11/27 02:18:59;;;;;;;1.10;1.00;;;4.90;99.90;;;;;;5070127;28;20895;-36
2021/11/27 02:21:24;;;;;;;1.17;1.03;;;4.90;99.90;;;;;;5068641;28;20424;-36
2021/11/27 02:23:53;;;;;;;1.30;1.20;;;5.00;99.90;;;;;;5067629;28;20188;-37
2021/11/27 02:26:22;;;;;;;1.30;1.10;;;5.10;99.90;;;;;;5068653;28;20422;-36
2021/11/27 02:28:58;;;;;;;1.10;1.00;;;5.00;99.90;;;;;;5068591;28;20408;-37
2021/11/27 02:31:25;;;;;;;1.00;1.00;;;4.90;99.90;;;;;;5068592;28;20454;-36
2021/11/27 02:33:55;;;;;;;1.33;1.23;;;5.10;99.90;;;;;;5058440;28;20432;-36
2021/11/27 02:36:23;;;;;;;1.40;1.30;;;4.70;99.90;;;;;;5065736;28;20423;-37
2021/11/27 02:38:49;;;;;;;1.60;1.30;;;4.90;99.90;;;;;;5067269;28;20466;-36
2021/11/27 02:41:15;;;;;;;2.40;1.40;;;4.90;99.90;;;;;;5068500;28;20781;-36
2021/11/27 02:43:41;;;;;;;1.47;1.37;;;4.80;99.90;;;;;;5067923;28;20906;-36
2021/11/27 02:46:07;;;;;;;1.50;1.40;;;4.60;99.90;;;;;;5068744;28;20427;-36
2021/11/27 02:48:33;;;;;;;1.40;1.30;;;4.80;99.90;;;;;;5056961;28;20200;-36
2021/11/27 02:50:58;;;;;;;1.70;1.60;;;4.70;99.90;;;;;;5058650;28;20983;-36
2021/11/27 02:53:24;;;;;;;1.60;1.50;;;4.80;99.90;;;;;;5067650;28;20189;-36
2021/11/27 02:55:50;;;;;;;1.60;1.50;;;4.80;99.90;;;;;;5068514;28;20184;-36
2021/11/27 02:58:16;;;;;;;1.80;1.70;;;5.00;99.90;;;;;;5068507;28;20949;-36
2021/11/27 03:00:43;;;;;;;1.50;1.40;;;4.70;99.90;;;;;;5183926;22;20241;-84
2021/11/27 03:03:09;;;;;;;1.07;0.97;;;4.90;99.90;;;;;;5073659;28;20669;-85
2021/11/27 03:05:35;;;;;;;1.93;1.83;;;5.00;99.90;;;;;;5049236;28;20422;-85
2021/11/27 03:08:01;;;;;;;1.70;1.60;;;5.00;99.90;;;;;;5055077;28;20688;-84
2021/11/27 03:10:27;;;;;;;1.73;1.63;;;5.10;99.90;;;;;;5058573;28;20415;-85
2021/11/27 03:12:53;;;;;;;2.20;1.53;;;5.00;99.90;;;;;;5077317;28;20419;-86
2021/11/27 03:15:19;;;;;;;1.90;1.70;;;4.70;99.90;;;;;;5040032;28;20439;-82
2021/11/27 03:17:46;;;;;;;1.63;1.53;;;4.80;99.90;;;;;;5068250;28;20235;-86
2021/11/27 03:20:14;;;;;;;1.97;1.77;;;4.80;99.90;;;;;;5060649;28;20534;-86
2021/11/27 03:22:41;;;;;;;2.03;1.87;;;4.90;99.90;;;;;;5060605;28;20450;-84
2021/11/27 03:25:08;;;;;;;1.87;1.77;;;4.90;99.90;;;;;;5057802;28;20905;-81
2021/11/27 03:27:34;;;;;;;1.70;1.60;;;4.80;99.90;;;;;;5060707;28;20983;-83
2021/11/27 03:29:59;;;;;;;1.90;1.80;;;4.90;99.90;;;;;;5061755;28;20419;-84
2021/11/27 03:32:25;;;;;;;1.97;1.60;;;5.00;99.90;;;;;;5061227;28;20901;-86
2021/11/27 03:34:52;;;;;;;2.40;2.20;;;4.90;99.90;;;;;;5053415;28;20246;-85
2021/11/27 03:37:18;;;;;;;2.37;2.00;;;4.80;99.90;;;;;;5056890;28;20205;-84
2021/11/27 03:39:45;;;;;;;2.47;2.27;;;5.00;99.90;;;;;;5054766;28;20424;-85
2021/11/27 03:42:15;;;;;;;2.17;1.97;;;4.80;99.90;;;;;;5042067;28;20515;-87
2021/11/27 03:44:42;;;;;;;2.47;2.10;;;4.90;99.90;;;;;;5057246;28;20804;-87
2021/11/27 03:47:08;;;;;;;2.53;2.33;;;4.80;99.90;;;;;;5073247;28;20436;-84
2021/11/27 03:49:34;;;;;;;2.40;2.20;;;4.90;99.90;;;;;;5059571;28;20523;-84
2021/11/27 03:52:00;;;;;;;3.50;2.50;;;4.70;99.90;;;;;;5057099;28;20181;-84
2021/11/27 03:54:26;;;;;;;2.43;2.23;;;4.90;99.90;;;;;;5044000;28;20431;-85
2021/11/27 03:56:54;;;;;;;2.43;2.23;;;5.00;99.90;;;;;;5041399;28;20621;-83
2021/11/27 03:59:21;;;;;;;2.80;2.60;;;5.10;99.90;;;;;;5059768;28;20427;-81
2021/11/27 04:01:47;;;;;;;3.53;2.80;;;5.10;99.90;;;;;;5060012;28;20431;-86
2021/11/27 04:04:13;;;;;;;2.63;2.43;;;5.20;99.90;;;;;;5056705;28;20821;-87
2021/11/27 04:06:39;;;;;;;3.80;3.50;;;5.10;99.90;;;;;;5039989;28;20447;-86
2021/11/27 04:09:07;;;;;;;3.47;3.17;;;5.10;99.90;;;;;;5022973;28;20428;-84
2021/11/27 04:11:34;;;;;;;4.10;3.53;;;5.10;99.90;;;;;;5070805;28;20644;-82
2021/11/27 04:14:00;;;;;;;3.80;3.40;;;5.40;99.90;;;;;;5078058;28;20420;-85
2021/11/27 04:16:25;;;;;;;3.67;3.37;;;5.20;99.90;;;;;;5076957;28;20488;-86
2021/11/27 04:18:51;;;;;;;3.63;3.33;;;5.20;99.90;;;;;;5039226;28;20563;-84
2021/11/27 04:21:20;;;;;;;3.40;3.10;;;5.20;99.90;;;;;;5072166;28;20177;-85
2021/11/27 04:23:51;;;;;;;3.57;3.27;;;5.10;99.90;;;;;;5049919;28;20173;-88
2021/11/27 04:26:18;;;;;;;3.87;3.53;;;5.20;99.90;;;;;;5041006;28;20501;-86
2021/11/27 04:28:44;;;;;;;4.67;4.23;;;5.30;99.90;;;;;;5059533;28;20833;-88
2021/11/27 04:31:10;;;;;;;5.67;5.17;;;5.50;99.90;;;;;;5029341;28;20423;-85
2021/11/27 04:33:37;;;;;;;7.07;4.97;;;5.30;99.90;;;;;;5058927;28;20423;-84
2021/11/27 04:36:04;;;;;;;6.23;5.40;;;5.20;99.90;;;;;;5059361;28;20435;-86
2021/11/27 04:38:30;;;;;;;6.87;5.17;;;5.30;99.90;;;;;;5057490;28;20497;-87
2021/11/27 04:40:56;;;;;;;4.37;3.80;;;5.40;99.90;;;;;;5029419;28;20416;-83
2021/11/27 04:43:22;;;;;;;4.43;3.77;;;5.20;99.90;;;;;;5047437;28;20425;-84
2021/11/27 04:45:49;;;;;;;5.00;3.60;;;4.90;99.90;;;;;;5054933;28;20933;-87
2021/11/27 04:48:15;;;;;;;4.00;2.60;;;4.80;99.90;;;;;;5076152;28;20520;-87
2021/11/27 04:50:41;;;;;;;3.33;2.60;;;4.70;99.90;;;;;;5058848;28;20450;-84
2021/11/27 04:53:08;;;;;;;3.67;2.80;;;4.70;99.90;;;;;;5049737;28;20423;-85
2021/11/27 04:55:34;;;;;;;5.30;2.87;;;4.80;99.90;;;;;;5060229;28;20425;-81
2021/11/27 04:58:01;;;;;;;3.07;2.30;;;4.90;99.90;;;;;;5076193;28;20455;-82
2021/11/27 05:00:31;;;;;;;3.40;2.73;;;4.80;99.90;;;;;;5058775;28;20944;-86
2021/11/27 05:02:57;;;;;;;2.90;2.60;;;4.60;99.90;;;;;;5042316;28;20518;-85
2021/11/27 05:05:23;;;;;;;4.23;2.80;;;4.50;99.90;;;;;;5076297;28;20458;-88
2021/11/27 05:07:50;;;;;;;3.10;2.10;;;4.60;99.90;;;;;;5034903;28;20448;-84
2021/11/27 05:10:17;;;;;;;4.37;2.57;;;4.50;99.90;;;;;;5042062;28;20442;-85
2021/11/27 05:12:42;;;;;;;7.63;3.13;;;4.70;99.90;;;;;;5037337;28;20501;-84
2021/11/27 05:15:09;;;;;;;4.10;2.23;;;4.40;99.90;;;;;;5057707;28;21021;-86
2021/11/27 05:17:35;;;;;;;3.03;2.47;;;4.40;99.90;;;;;;5057298;28;20231;-84
2021/11/27 05:20:01;;;;;;;3.97;3.00;;;4.50;99.90;;;;;;5073751;28;20428;-85
2021/11/27 05:22:27;;;;;;;3.23;2.87;;;4.40;99.90;;;;;;5038433;28;20942;-88
2021/11/27 05:24:53;;;;;;;4.67;3.60;;;4.30;99.90;;;;;;5054044;28;20427;-85
2021/11/27 05:27:20;;;;;;;3.20;2.90;;;4.40;99.90;;;;;;5049218;28;20236;-87
2021/11/27 05:29:48;;;;;;;3.60;3.00;;;4.10;99.90;;;;;;5026255;28;20228;-87
2021/11/27 05:32:25;;;;;;;4.20;3.23;;;4.30;99.90;;;;;;5038695;28;20435;-87
2021/11/27 05:34:54;;;;;;;3.40;3.07;;;4.30;99.90;;;;;;5032551;28;20443;-85
2021/11/27 05:37:20;;;;;;;5.10;3.60;;;4.20;99.90;;;;;;5073991;28;20546;-87
2021/11/27 05:39:46;;;;;;;4.00;3.40;;;4.30;99.90;;;;;;5075046;28;20423;-85
2021/11/27 05:42:14;;;;;;;5.07;3.77;;;4.20;99.90;;;;;;5075364;28;20416;-86
2021/11/27 05:44:40;;;;;;;6.37;4.30;;;4.40;99.90;;;;;;5040303;28;21027;-88
2021/11/27 05:47:06;;;;;;;6.43;4.33;;;4.30;99.90;;;;;;5035087;28;20956;-86
2021/11/27 05:49:32;;;;;;;6.63;5.50;;;4.60;99.90;;;;;;5042694;28;20443;-84
2021/11/27 05:51:58;;;;;;;6.87;4.87;;;4.40;99.90;;;;;;5054565;28;20189;-85
2021/11/27 05:54:23;;;;;;;6.60;5.20;;;4.30;99.90;;;;;;5073179;28;20580;-87
2021/11/27 05:56:49;;;;;;;9.27;6.53;;;4.40;99.90;;;;;;5060168;28;20436;-88
2021/11/27 05:59:15;;;;;;;8.43;6.13;;;4.40;99.90;;;;;;5040296;28;20256;-84
2021/11/27 06:01:41;;;;;;;8.60;6.87;;;4.20;99.90;;;;;;5022363;28;20276;-84
2021/11/27 06:04:06;;;;;;;9.30;6.23;;;4.40;99.90;;;;;;5058401;28;20189;-85
2021/11/27 06:06:32;;;;;;;5.43;4.10;;;4.40;99.90;;;;;;5040470;28;20956;-85
2021/11/27 06:08:59;;;;;;;7.27;5.60;;;4.10;99.90;;;;;;5056830;28;20207;-84
2021/11/27 06:11:26;;;;;;;7.53;4.90;;;4.50;99.90;;;;;;5041738;28;20442;-85
2021/11/27 06:13:52;;;;;;;5.43;4.67;;;4.30;99.90;;;;;;5037758;28;20476;-84
2021/11/27 06:16:18;;;;;;;7.43;4.30;;;4.30;99.90;;;;;;5057844;28;20443;-85
2021/11/27 06:18:44;;;;;;;6.40;5.20;;;4.30;99.90;;;;;;5044291;28;20831;-84
2021/11/27 06:21:10;;;;;;;6.20;4.83;;;4.30;99.90;;;;;;5075089;28;20185;-83
2021/11/27 06:23:35;;;;;;;7.57;5.40;;;4.30;99.90;;;;;;5037104;28;20213;-83
2021/11/27 06:26:01;;;;;;;6.40;5.20;;;4.30;99.90;;;;;;5049166;28;20201;-83
2021/11/27 06:28:28;;;;;;;7.63;5.43;;;4.10;99.90;;;;;;5048043;28;20177;-83
2021/11/27 06:30:54;;;;;;;6.10;4.73;;;4.40;99.90;;;;;;5020275;28;20423;-84
2021/11/27 06:33:20;;;;;;;7.60;5.37;;;4.10;99.90;;;;;;5035364;28;21172;-85
2021/11/27 06:35:46;;;;;;;7.40;5.63;;;4.20;99.90;;;;;;5066126;28;20984;-85
2021/11/27 06:38:12;;;;;;;6.67;4.87;;;4.40;99.90;;;;;;5074481;28;20984;-86
2021/11/27 06:40:38;;;;;;;6.33;5.30;;;4.20;99.90;;;;;;5043295;28;20426;-85
2021/11/27 06:43:04;;;;;;;7.60;6.17;;;4.30;99.90;;;;;;5050462;28;20205;-85
2021/11/27 06:45:32;;;;;;;8.20;6.07;;;4.20;99.90;;;;;;5035162;28;20235;-83
2021/11/27 06:47:58;;;;;;;8.53;6.23;;;4.60;99.90;;;;;;5052860;28;20450;-86
2021/11/27 06:50:25;;;;;;;7.40;6.10;;;4.50;99.90;;;;;;5034901;28;20447;-84
2021/11/27 06:52:51;;;;;;;7.50;6.13;;;4.60;99.90;;;;;;5034692;28;20496;-85
2021/11/27 06:55:18;;;;;;;7.00;5.30;;;4.70;99.90;;;;;;5040912;28;20499;-85
2021/11/27 06:57:50;;;;;;;11.33;6.40;;;4.50;99.90;;;;;;5058695;28;20455;-86
2021/11/27 07:00:16;;;;;;;7.93;5.87;;;4.60;99.90;;;;;;5055228;28;20521;-85
2021/11/27 07:02:42;;;;;;;8.17;6.50;;;4.60;99.90;;;;;;5067670;28;20455;-85
2021/11/27 07:05:08;;;;;;;7.60;5.90;;;4.60;99.90;;;;;;5042868;28;20259;-83
2021/11/27 07:07:33;;;;;;;8.00;5.90;;;4.60;99.90;;;;;;5023325;28;20750;-85
2021/11/27 07:10:01;;;;;;;7.10;5.00;;;4.70;99.90;;;;;;5054350;28;20214;-83
2021/11/27 07:12:27;;;;;;;8.97;6.77;;;4.50;99.90;;;;;;5039512;28;20856;-86
2021/11/27 07:14:52;;;;;;;8.77;6.47;;;4.70;99.90;;;;;;5036593;28;20458;-84
2021/11/27 07:17:30;;;;;;;7.90;6.07;;;4.80;99.90;;;;;;5036645;28;20211;-85
2021/11/27 07:19:57;;;;;;;7.00;5.50;;;4.60;99.90;;;;;;5033032;28;20447;-86
2021/11/27 07:22:24;;;;;;;7.00;5.60;;;4.70;99.90;;;;;;5030289;28;20421;-86
2021/11/27 07:24:50;;;;;;;8.47;5.83;;;4.60;99.90;;;;;;5047215;28;20413;-86
2021/11/27 07:27:16;;;;;;;7.90;6.33;;;4.50;99.90;;;;;;5055828;28;20440;-85
2021/11/27 07:29:41;;;;;;;7.50;6.40;;;4.90;99.90;;;;;;5056988;28;20287;-86
2021/11/27 07:32:07;;;;;;;11.07;6.67;;;4.60;99.90;;;;;;5030777;28;20190;-84
2021/11/27 07:34:33;;;;;;;7.17;5.60;;;4.50;99.90;;;;;;5053269;28;20189;-86
2021/11/27 07:36:59;;;;;;;9.70;6.57;;;4.60;99.90;;;;;;5035359;28;20209;-86
2021/11/27 07:39:24;;;;;;;10.37;6.60;;;4.40;99.90;;;;;;5039368;28;20425;-86
2021/11/27 07:41:50;;;;;;;8.57;6.67;;;4.60;99.90;;;;;;5015175;28;20565;-86
2021/11/27 07:44:16;;;;;;;8.53;6.87;;;4.60;99.90;;;;;;5056086;28;20178;-86
2021/11/27 07:46:56;;;;;;;8.70;6.17;;;4.70;99.90;;;;;;5071793;28;20211;-85
2021/11/27 07:49:29;;;;;;;8.43;7.10;;;4.80;99.90;;;;;;5048869;28;20435;-85
2021/11/27 07:52:10;;;;;;;11.00;7.63;;;4.80;99.90;;;;;;5048526;28;20449;-85
2021/11/27 07:54:36;;;;;;;9.57;7.83;;;4.80;99.90;;;;;;5052532;28;20430;-86
2021/11/27 07:57:02;;;;;;;9.57;6.80;;;4.60;99.90;;;;;;5047185;28;20460;-85
2021/11/27 07:59:29;;;;;;;10.27;6.60;;;4.70;99.90;;;;;;5036027;28;20196;-85
2021/11/27 08:01:56;;;;;;;10.10;7.13;;;4.80;99.90;;;;;;5039669;28;20482;-86
2021/11/27 08:04:21;;;;;;;8.90;6.70;;;4.50;99.90;;;;;;5073032;28;20415;-85
2021/11/27 08:06:47;;;;;;;9.93;6.20;;;4.50;99.90;;;;;;5039469;28;20504;-85
2021/11/27 08:09:13;;;;;;;11.10;8.37;;;4.50;99.90;;;;;;5053691;28;20964;-86
2021/11/27 08:11:39;;;;;;;9.10;6.90;;;4.70;99.90;;;;;;5055586;28;20667;-84
2021/11/27 08:14:04;;;;;;;15.43;8.07;;;5.00;99.90;;;;;;5056973;28;20429;-87
2021/11/27 08:16:30;;;;;;;11.40;7.17;;;4.70;99.90;;;;;;5046620;28;20825;-86
2021/11/27 08:18:56;;;;;;;11.00;7.00;;;4.80;99.90;;;;;;5050683;28;20604;-84
2021/11/27 08:21:24;;;;;;;10.90;6.70;;;5.00;99.90;;;;;;5020693;28;20228;-84
2021/11/27 08:23:50;;;;;;;8.70;6.93;;;5.00;99.90;;;;;;5038886;28;20197;-87
2021/11/27 08:26:16;;;;;;;10.80;7.57;;;5.20;99.90;;;;;;5036599;28;20455;-84
2021/11/27 08:28:41;;;;;;;9.27;7.70;;;5.00;99.90;;;;;;5071315;28;20204;-85
2021/11/27 08:31:07;;;;;;;9.30;6.80;;;5.20;99.90;;;;;;5050866;28;20189;-86
2021/11/27 08:33:33;;;;;;;11.50;8.40;;;5.20;99.90;;;;;;5037090;28;20216;-86
2021/11/27 08:35:59;;;;;;;10.40;7.67;;;5.50;99.90;;;;;;5070555;28;20248;-84
2021/11/27 08:38:26;;;;;;;10.87;7.47;;;5.70;99.90;;;;;;5034345;28;20595;-84
2021/11/27 08:40:52;;;;;;;8.97;7.50;;;5.80;99.90;;;;;;5054298;28;20428;-84
2021/11/27 08:43:18;;;;;;;10.53;7.47;;;5.90;99.90;;;;;;5050443;28;20450;-84
2021/11/27 08:45:45;;;;;;;9.43;7.50;;;5.80;99.90;;;;;;5057615;28;20287;-84
2021/11/27 08:48:11;;;;;;;12.63;7.30;;;5.80;99.90;;;;;;5029145;28;20340;-84
2021/11/27 08:50:37;;;;;;;11.63;7.90;;;5.60;99.90;;;;;;5061041;28;20424;-86
2021/11/27 08:53:02;;;;;;;9.80;7.40;;;5.80;99.90;;;;;;5032287;28;20438;-86
2021/11/27 08:55:28;;;;;;;8.90;7.13;;;5.80;99.90;;;;;;5049894;28;20197;-86
2021/11/27 08:57:54;;;;;;;11.30;7.60;;;5.60;99.90;;;;;;5035469;28;20228;-84
2021/11/27 09:00:20;;;;;;;11.23;7.20;;;5.60;99.90;;;;;;5030323;28;20194;-86
2021/11/27 09:02:46;;;;;;;9.70;7.60;;;5.60;99.90;;;;;;5051090;28;20192;-86
2021/11/27 09:05:11;;;;;;;10.93;8.80;;;5.50;99.90;;;;;;5065449;28;20420;-85
2021/11/27 09:07:37;;;;;;;10.70;7.90;;;5.70;99.90;;;;;;5032340;28;20452;-84
2021/11/27 09:10:04;;;;;;;11.77;8.10;;;5.50;99.90;;;;;;5066601;28;20189;-85
2021/11/27 09:12:30;;;;;;;11.20;7.17;;;5.10;99.90;;;;;;5047823;28;20189;-85
2021/11/27 09:14:56;;;;;;;12.80;8.27;;;5.40;99.90;;;;;;5040221;28;20462;-86
2021/11/27 09:17:22;;;;;;;10.40;8.03;;;5.30;99.90;;;;;;5072726;28;20466;-84
2021/11/27 09:19:48;;;;;;;9.43;7.50;;;5.40;99.90;;;;;;5070710;28;20431;-83
2021/11/27 09:22:14;;;;;;;14.20;9.40;;;5.30;99.90;;;;;;5049078;28;20435;-86
2021/11/27 09:24:40;;;;;;;11.40;8.00;;;5.40;99.90;;;;;;5073137;28;20222;-84
2021/11/27 09:27:05;;;;;;;10.13;7.60;;;5.50;99.90;;;;;;5030852;28;20451;-85
2021/11/27 09:29:33;;;;;;;14.43;8.67;;;5.40;99.90;;;;;;5063982;28;20509;-85
2021/11/27 09:31:59;;;;;;;11.87;8.50;;;5.20;99.90;;;;;;5044009;28;20185;-86
2021/11/27 09:34:25;;;;;;;11.13;8.33;;;5.30;99.90;;;;;;5052730;28;20423;-86
2021/11/27 09:36:51;;;;;;;12.30;9.43;;;5.20;99.90;;;;;;5068192;28;20461;-84
2021/11/27 09:39:17;;;;;;;14.17;9.47;;;5.30;99.90;;;;;;5052675;28;20466;-86
2021/11/27 09:41:45;;;;;;;13.27;8.47;;;5.30;99.90;;;;;;5075399;28;20415;-86
2021/11/27 09:44:13;;;;;;;15.50;9.17;;;5.40;99.90;;;;;;5037661;28;20426;-86
2021/11/27 09:46:41;;;;;;;13.00;9.50;;;5.20;99.90;;;;;;5044997;28;20432;-86
2021/11/27 09:49:17;;;;;;;13.43;9.47;;;5.40;99.90;;;;;;5029541;28;20598;-85
2021/11/27 09:51:44;;;;;;;14.43;8.50;;;5.40;99.90;;;;;;5059705;28;20471;-84
2021/11/27 09:54:12;;;;;;;12.77;8.17;;;5.60;99.90;;;;;;5064713;28;20423;-84
2021/11/27 09:56:39;;;;;;;14.77;9.40;;;5.30;99.90;;;;;;5050022;28;20431;-85
2021/11/27 09:59:05;;;;;;;16.57;9.30;;;5.40;99.90;;;;;;5046559;28;20824;-84
2021/11/27 10:01:35;;;;;;;12.40;9.00;;;5.40;99.90;;;;;;5053269;28;20995;-84
2021/11/27 10:04:06;;;;;;;14.37;8.13;;;5.40;99.90;;;;;;5046556;28;20431;-84
2021/11/27 10:06:37;;;;;;;13.97;9.20;;;5.60;99.90;;;;;;5031697;28;20914;-84
2021/11/27 10:09:16;;;;;;;15.77;9.23;;;5.60;99.90;;;;;;5031308;28;20424;-86
2021/11/27 10:11:43;;;;;;;13.30;8.30;;;5.30;99.90;;;;;;5055070;28;20440;-83
2021/11/27 10:14:10;;;;;;;17.03;9.00;;;5.40;99.90;;;;;;5023586;28;20435;-85
2021/11/27 10:16:59;;;;;;;14.93;8.37;;;5.50;99.90;;;;;;5076641;28;20473;-83
2021/11/27 10:19:58;;;;;;;11.23;8.10;;;5.50;99.90;;;;;;5050442;28;21022;-83
2021/11/27 10:22:47;;;;;;;14.53;8.60;;;5.70;99.90;;;;;;5050913;28;20435;-84
2021/11/27 10:25:26;;;;;;;14.90;9.00;;;5.80;99.90;;;;;;5049203;28;20426;-85
2021/11/27 10:28:20;;;;;;;11.90;7.93;;;5.80;99.90;;;;;;5053430;28;20492;-85
2021/11/27 10:31:05;;;;;;;11.47;8.67;;;5.90;99.90;;;;;;5059900;28;20434;-85
2021/11/27 10:33:38;;;;;;;9.33;7.50;;;5.90;99.90;;;;;;5046725;28;20449;-86
2021/11/27 10:36:07;;;;;;;12.40;8.37;;;6.20;99.90;;;;;;5055995;28;20824;-85
2021/11/27 10:38:52;;;;;;;14.43;9.00;;;6.10;99.90;;;;;;5061248;28;20462;-86
2021/11/27 10:41:18;;;;;;;13.17;8.33;;;6.00;99.90;;;;;;5043354;28;20513;-85
2021/11/27 10:43:59;;;;;;;10.53;8.63;;;6.00;99.90;;;;;;5060653;28;20832;-85
2021/11/27 10:46:28;;;;;;;10.80;9.23;;;6.20;99.90;;;;;;5042428;28;20534;-85
2021/11/27 10:48:54;;;;;;;10.93;7.33;;;5.90;99.90;;;;;;5044219;28;20426;-86
2021/11/27 10:51:23;;;;;;;10.37;6.63;;;6.00;99.90;;;;;;5037638;28;20412;-85
2021/11/27 10:54:07;;;;;;;10.07;7.20;;;5.90;99.90;;;;;;5066436;28;20740;-85
2021/11/27 10:56:48;;;;;;;9.57;6.90;;;5.60;99.90;;;;;;5059646;28;20457;-86
2021/11/27 10:59:15;;;;;;;15.43;7.70;;;5.80;99.90;;;;;;5061767;28;20459;-85
2021/11/27 11:02:02;;;;;;;11.70;6.77;;;5.90;99.90;;;;;;5044998;28;20434;-84
2021/11/27 11:04:28;;;;;;;10.40;6.87;;;5.90;99.90;;;;;;5047797;28;20416;-86
2021/11/27 11:07:25;;;;;;;18.07;7.00;;;5.90;99.90;;;;;;5071527;28;20466;-83
2021/11/27 11:10:06;;;;;;;11.60;7.10;;;6.00;99.90;;;;;;5073971;28;20854;-85
2021/11/27 11:12:36;;;;;;;9.90;6.60;;;6.30;99.90;;;;;;5049067;28;20456;-86
2021/11/27 11:15:20;;;;;;;11.33;7.33;;;6.40;99.90;;;;;;5042383;28;20411;-85
2021/11/27 11:17:47;;;;;;;12.00;6.67;;;6.30;99.90;;;;;;5056408;28;20478;-85
2021/11/27 11:20:17;;;;;;;11.13;6.87;;;6.20;99.90;;;;;;5058559;28;20451;-85
2021/11/27 11:22:57;;;;;;;13.47;7.40;;;6.20;99.90;;;;;;5067047;28;20429;-85
2021/11/27 11:25:23;;;;;;;10.17;5.90;;;6.10;99.90;;;;;;5077175;28;20429;-88
2021/11/27 11:27:49;;;;;;;13.47;7.60;;;6.50;99.90;;;;;;5036231;28;20440;-87
2021/11/27 11:30:19;;;;;;;8.90;6.80;;;6.60;99.90;;;;;;5039458;28;20182;-88
2021/11/27 11:32:44;;;;;;;10.13;6.53;;;6.30;99.90;;;;;;5054746;28;20417;-86
2021/11/27 11:35:10;;;;;;;15.50;7.10;;;6.70;99.90;;;;;;5043290;28;20426;-87
2021/11/27 11:37:36;;;;;;;14.37;6.67;;;6.90;99.90;;;;;;5078350;28;20216;-85
2021/11/27 11:40:03;;;;;;;11.90;6.70;;;7.00;99.90;;;;;;5060058;28;20418;-86
2021/11/27 11:42:31;;;;;;;11.00;5.93;;;7.30;99.90;;;;;;5037330;28;20418;-85
2021/11/27 11:44:57;;;;;;;9.73;6.03;;;8.00;99.90;;;;;;5056903;28;20948;-85
2021/11/27 11:47:24;;;;;;;10.87;6.00;;;8.20;99.90;;;;;;5072501;28;20447;-84
2021/11/27 11:49:55;;;;;;;10.87;6.30;;;8.20;99.90;;;;;;5080736;28;21320;-84
2021/11/27 11:52:38;;;;;;;7.93;5.37;;;8.50;99.90;;;;;;5059032;28;20432;-84
2021/11/27 11:55:11;;;;;;;7.90;4.83;;;8.40;99.90;;;;;;5078731;28;20426;-85
2021/11/27 11:57:57;;;;;;;12.17;4.70;;;8.20;99.90;;;;;;5050413;28;20470;-83
2021/11/27 12:00:26;;;;;;;7.53;4.00;;;8.10;99.90;;;;;;5071768;28;20469;-84
2021/11/27 12:03:01;;;;;;;14.00;4.57;;;8.10;99.90;;;;;;5062126;28;20415;-83
2021/11/27 12:05:27;;;;;;;12.07;4.77;;;7.80;99.90;;;;;;5068173;28;20451;-84
2021/11/27 12:07:54;;;;;;;11.10;5.13;;;7.80;99.90;;;;;;5033567;28;20443;-86
2021/11/27 12:10:53;;;;;;;5.43;3.90;;;7.90;99.90;;;;;;5063707;28;20189;-86
2021/11/27 12:13:28;;;;;;;6.73;4.40;;;8.10;99.90;;;;;;5048968;28;20503;-87
2021/11/27 12:16:05;;;;;;;9.43;4.70;;;8.00;99.90;;;;;;5037575;28;20546;-87
2021/11/27 12:18:30;;;;;;;6.73;3.50;;;8.00;99.90;;;;;;5040513;28;20460;-87
2021/11/27 12:21:01;;;;;;;9.50;4.60;;;7.60;99.90;;;;;;5053865;28;20985;-86
2021/11/27 12:23:35;;;;;;;8.90;4.40;;;8.00;99.90;;;;;;5042729;28;20650;-87
2021/11/27 12:26:14;;;;;;;8.13;4.27;;;7.80;99.90;;;;;;5068175;28;20447;-88
2021/11/27 12:28:49;;;;;;;9.87;4.67;;;7.50;99.90;;;;;;5056511;28;20488;-87
2021/11/27 12:31:40;;;;;;;6.97;4.80;;;7.30;99.90;;;;;;5051119;28;21249;-87
2021/11/27 12:34:07;;;;;;;10.80;4.90;;;7.10;99.90;;;;;;5061053;28;20434;-86
2021/11/27 12:36:39;;;;;;;11.27;6.77;;;7.10;99.90;;;;;;5079891;28;20548;-87
2021/11/27 12:39:34;;;;;;;14.80;5.70;;;7.10;99.90;;;;;;5056491;28;20451;-87
2021/11/27 12:42:13;;;;;;;7.93;5.60;;;7.40;99.90;;;;;;5062777;28;20992;-84
2021/11/27 12:44:49;;;;;;;6.43;4.13;;;7.30;99.90;;;;;;5080512;28;20422;-86
2021/11/27 12:47:23;;;;;;;9.20;4.40;;;7.20;99.90;;;;;;5079399;28;20450;-85
2021/11/27 12:49:52;;;;;;;11.00;4.73;;;7.30;99.90;;;;;;5075202;28;20840;-86
2021/11/27 12:52:24;;;;;;;13.63;5.60;;;7.10;99.90;;;;;;5056215;28;21398;-85
2021/11/27 12:54:57;;;;;;;12.37;4.67;;;7.10;99.90;;;;;;5057656;28;20442;-83
2021/11/27 12:57:27;;;;;;;7.90;4.10;;;7.00;99.90;;;;;;5057389;28;20496;-82
2021/11/27 13:00:12;;;;;;;9.57;4.20;;;6.90;99.90;;;;;;5075233;28;20436;-86
2021/11/27 13:03:07;;;;;;;5.90;3.60;;;6.90;99.90;;;;;;5055844;28;20425;-81